createdAt,value
2023-05-05T00:01:14.685Z,7.93
2023-05-05T00:03:41.448Z,7.15
2023-05-05T00:06:08.205Z,6.40
2023-05-05T00:08:35.043Z,6.82
2023-05-05T00:11:01.720Z,8.00
2023-05-05T00:13:28.312Z,7.60
2023-05-05T00:15:58.613Z,6.57
2023-05-05T00:18:25.210Z,6.05
2023-05-05T00:20:51.884Z,7.93
2023-05-05T00:23:22.505Z,7.05
2023-05-05T00:25:49.488Z,7.55
2023-05-05T00:28:16.108Z,7.07
2023-05-05T00:30:42.818Z,6.68
2023-05-05T00:33:09.388Z,8.75
2023-05-05T00:35:41.319Z,10.48
2023-05-05T00:40:34.319Z,8.45
2023-05-05T00:43:00.859Z,11.00
2023-05-05T00:45:27.559Z,8.73
2023-05-05T00:47:55.031Z,8.20
2023-05-05T00:50:22.809Z,9.32
2023-05-05T00:52:53.306Z,11.77
2023-05-05T00:55:23.290Z,11.85
2023-05-05T00:57:50.117Z,6.80
2023-05-05T01:00:16.775Z,7.63
2023-05-05T01:02:45.930Z,6.85
2023-05-05T01:05:12.976Z,9.73
2023-05-05T01:07:45.732Z,12.15
2023-05-05T01:10:19.892Z,10.93
2023-05-05T01:13:13.513Z,7.47
2023-05-05T01:15:58.932Z,6.85
2023-05-05T01:18:34.280Z,7.68
2023-05-05T01:21:12.393Z,8.25
2023-05-05T01:23:58.999Z,5.97
2023-05-05T01:26:48.248Z,8.82
2023-05-05T01:29:33.551Z,6.95
2023-05-05T01:32:26.379Z,7.13
2023-05-05T01:34:53.004Z,6.60
2023-05-05T01:37:22.839Z,9.65
2023-05-05T01:39:51.676Z,8.00
2023-05-05T01:42:18.788Z,7.05
2023-05-05T01:44:45.790Z,8.48
2023-05-05T01:47:14.832Z,7.55
2023-05-05T01:49:43.067Z,7.15
2023-05-05T01:52:10.423Z,8.68
2023-05-05T01:54:37.335Z,8.52
2023-05-05T01:57:05.690Z,7.38
2023-05-05T01:59:32.623Z,11.57
2023-05-05T02:02:01.099Z,7.97
2023-05-05T02:07:25.656Z,11.20
2023-05-05T02:09:52.772Z,6.70
2023-05-05T02:12:19.901Z,9.02
2023-05-05T02:14:47.177Z,8.50
2023-05-05T02:17:16.263Z,8.05
2023-05-05T02:19:44.957Z,6.20
2023-05-05T02:22:17.474Z,7.40
2023-05-05T02:24:44.963Z,8.25
2023-05-05T02:27:12.178Z,7.57
2023-05-05T02:30:00.275Z,9.23
2023-05-05T02:32:29.098Z,8.35
2023-05-05T02:34:58.787Z,7.45
2023-05-05T02:37:34.009Z,6.85
2023-05-05T02:40:06.997Z,7.05
2023-05-05T02:42:45.476Z,6.93
2023-05-05T02:45:19.853Z,8.07
2023-05-05T02:47:47.828Z,9.05
2023-05-05T02:50:14.537Z,7.15
2023-05-05T02:52:47.984Z,8.15
2023-05-05T02:55:21.984Z,9.10
2023-05-05T02:58:09.597Z,11.55
2023-05-05T03:00:39.213Z,6.88
2023-05-05T03:03:05.840Z,7.80
2023-05-05T03:05:41.292Z,9.15
2023-05-05T03:08:14.280Z,7.85
2023-05-05T03:13:40.605Z,7.38
2023-05-05T03:16:20.320Z,6.28
2023-05-05T03:19:16.454Z,8.23
2023-05-05T03:21:46.070Z,7.03
2023-05-05T03:24:23.696Z,6.68
2023-05-05T03:27:01.343Z,7.10
2023-05-05T03:29:35.385Z,13.05
2023-05-05T03:32:02.365Z,10.15
2023-05-05T03:35:02.408Z,9.80
2023-05-05T03:37:48.606Z,11.02
2023-05-05T03:40:15.639Z,8.75
2023-05-05T03:42:42.760Z,10.07
2023-05-05T03:45:12.639Z,7.60
2023-05-05T03:47:39.754Z,9.40
2023-05-05T03:50:09.134Z,7.55
2023-05-05T03:52:39.642Z,8.68
2023-05-05T03:55:06.426Z,7.93
2023-05-05T03:57:33.800Z,9.50
2023-05-05T04:00:03.467Z,8.45
2023-05-05T04:02:30.141Z,7.03
2023-05-05T04:04:56.759Z,7.53
2023-05-05T04:07:23.866Z,9.13
2023-05-05T04:09:50.464Z,6.32
2023-05-05T04:12:17.081Z,7.10
2023-05-05T04:14:51.140Z,6.93
2023-05-05T04:17:21.251Z,9.57
2023-05-05T04:20:00.875Z,8.32
2023-05-05T04:22:27.468Z,10.35
2023-05-05T04:24:54.057Z,11.35
2023-05-05T04:27:26.076Z,8.15
2023-05-05T04:32:22.569Z,6.57
2023-05-05T04:34:49.177Z,11.20
2023-05-05T04:37:15.790Z,6.07
2023-05-05T04:39:52.078Z,5.95
2023-05-05T04:42:19.579Z,8.70
2023-05-05T04:44:50.537Z,6.60
2023-05-05T04:47:17.071Z,9.27
2023-05-05T04:49:43.672Z,6.30
2023-05-05T04:52:11.877Z,7.82
2023-05-05T04:54:38.858Z,9.27
2023-05-05T04:57:10.333Z,6.80
2023-05-05T04:59:38.795Z,9.02
2023-05-05T05:02:11.558Z,10.50
2023-05-05T05:04:38.106Z,6.80
2023-05-05T05:07:04.723Z,8.77
2023-05-05T05:09:31.295Z,8.13
2023-05-05T05:12:01.204Z,9.23
2023-05-05T05:14:27.808Z,9.75
2023-05-05T05:16:54.905Z,8.80
2023-05-05T05:19:21.500Z,6.30
2023-05-05T05:21:48.104Z,7.63
2023-05-05T05:24:14.639Z,9.48
2023-05-05T05:26:41.293Z,7.70
2023-05-05T05:29:07.956Z,8.68
2023-05-05T05:31:34.644Z,6.25
2023-05-05T05:34:01.905Z,8.50
2023-05-05T05:36:28.440Z,7.43
2023-05-05T05:38:56.073Z,7.90
2023-05-05T05:41:28.097Z,6.65
2023-05-05T05:43:54.633Z,7.22
2023-05-05T05:46:21.320Z,8.82
2023-05-05T05:48:52.585Z,11.93
2023-05-05T05:53:46.406Z,6.03
2023-05-05T05:56:12.968Z,8.20
2023-05-05T05:58:39.861Z,8.10
2023-05-05T06:01:06.685Z,8.80
2023-05-05T06:03:33.964Z,10.40
2023-05-05T06:06:00.688Z,9.85
2023-05-05T06:08:27.287Z,10.43
2023-05-05T06:10:53.926Z,6.85
2023-05-05T06:13:20.485Z,7.32
2023-05-05T06:15:47.950Z,10.52
2023-05-05T06:18:16.144Z,9.52
2023-05-05T06:20:49.804Z,6.60
2023-05-05T06:23:17.298Z,6.15
2023-05-05T06:25:43.849Z,6.53
2023-05-05T06:28:10.389Z,11.93
2023-05-05T06:30:37.076Z,10.68
2023-05-05T06:33:03.730Z,9.38
2023-05-05T06:35:30.338Z,9.93
2023-05-05T06:37:56.933Z,8.48
2023-05-05T06:40:23.481Z,8.55
2023-05-05T06:42:51.737Z,8.35
2023-05-05T06:45:18.381Z,13.77
2023-05-05T06:47:44.970Z,10.75
2023-05-05T06:50:11.710Z,12.95
2023-05-05T06:52:38.277Z,9.32
2023-05-05T06:55:04.970Z,8.48
2023-05-05T06:57:31.514Z,11.05
2023-05-05T07:00:01.384Z,11.80
2023-05-05T07:02:28.013Z,10.20
2023-05-05T07:04:57.950Z,10.90
2023-05-05T07:07:24.610Z,12.05
2023-05-05T07:09:51.845Z,13.70
2023-05-05T07:12:18.422Z,9.32
2023-05-05T07:14:58.376Z,7.20
2023-05-05T07:17:26.392Z,19.52
2023-05-05T07:19:53.067Z,9.57
2023-05-05T07:22:20.149Z,11.60
2023-05-05T07:24:51.679Z,11.32
2023-05-05T07:27:18.419Z,10.55
2023-05-05T07:29:44.977Z,11.55
2023-05-05T07:32:12.961Z,9.60
2023-05-05T07:34:39.632Z,8.65
2023-05-05T07:37:09.138Z,8.27
2023-05-05T07:39:35.706Z,9.68
2023-05-05T07:42:02.304Z,8.50
2023-05-05T07:44:28.950Z,6.45
2023-05-05T07:46:55.915Z,13.93
2023-05-05T07:49:23.209Z,5.10
2023-05-05T07:51:49.879Z,7.15
2023-05-05T07:54:19.391Z,6.78
2023-05-05T07:56:46.049Z,7.20
2023-05-05T07:59:12.914Z,4.35
2023-05-05T08:01:39.950Z,7.97
2023-05-05T08:04:09.371Z,5.70
2023-05-05T08:06:36.874Z,4.30
2023-05-05T08:09:03.427Z,5.57
2023-05-05T08:11:33.948Z,5.30
2023-05-05T08:14:04.905Z,4.35
2023-05-05T08:16:31.976Z,3.65
2023-05-05T08:18:59.746Z,5.00
2023-05-05T08:21:28.634Z,4.18
2023-05-05T08:23:59.367Z,5.60
2023-05-05T08:26:26.296Z,3.72
2023-05-05T08:28:52.888Z,3.30
2023-05-05T08:31:38.039Z,5.60
2023-05-05T08:34:05.582Z,3.58
2023-05-05T08:36:32.961Z,3.88
2023-05-05T08:39:02.954Z,3.88
2023-05-05T08:41:29.555Z,4.88
2023-05-05T08:43:56.179Z,3.25
2023-05-05T08:46:24.008Z,8.25
2023-05-05T08:48:54.374Z,3.30
2023-05-05T08:51:21.643Z,4.55
2023-05-05T08:53:54.374Z,4.00
2023-05-05T08:56:21.846Z,3.78
2023-05-05T08:58:48.815Z,2.80
2023-05-05T09:01:17.203Z,3.45
2023-05-05T09:03:44.336Z,3.10
2023-05-05T09:06:11.052Z,2.80
2023-05-05T09:08:41.364Z,2.45
2023-05-05T09:11:08.040Z,3.63
2023-05-05T09:13:46.891Z,2.70
2023-05-05T09:16:13.496Z,2.67
2023-05-05T09:18:40.208Z,3.08
2023-05-05T09:21:25.159Z,3.17
2023-05-05T09:24:12.386Z,6.43
2023-05-05T09:26:45.897Z,2.90
2023-05-05T09:29:25.873Z,2.00
2023-05-05T09:32:04.533Z,3.50
2023-05-05T09:34:35.175Z,1.92
2023-05-05T09:37:05.370Z,2.58
2023-05-05T09:39:31.984Z,2.47
2023-05-05T09:41:58.656Z,3.38
2023-05-05T09:44:35.172Z,1.90
2023-05-05T09:47:01.796Z,1.98
2023-05-05T09:49:35.361Z,1.95
2023-05-05T09:52:20.493Z,3.40
2023-05-05T09:54:53.556Z,2.17
2023-05-05T09:57:34.451Z,3.55
2023-05-05T10:00:04.478Z,3.40
2023-05-05T10:02:35.669Z,2.35
2023-05-05T10:05:22.916Z,13.93
2023-05-05T10:07:52.489Z,2.47
2023-05-05T10:10:35.671Z,6.18
2023-05-05T10:13:11.301Z,5.97
2023-05-05T10:15:43.203Z,2.38
2023-05-05T10:18:11.671Z,4.57
2023-05-05T10:20:38.804Z,2.88
2023-05-05T10:23:07.229Z,2.05
2023-05-05T10:25:45.048Z,3.92
2023-05-05T10:28:16.710Z,4.28
2023-05-05T10:30:44.277Z,1.88
2023-05-05T10:35:53.564Z,3.05
2023-05-05T10:38:21.088Z,2.30
2023-05-05T10:40:48.196Z,2.53
2023-05-05T10:43:29.204Z,2.13
2023-05-05T10:45:57.506Z,2.05
2023-05-05T10:48:35.854Z,3.55
2023-05-05T10:51:27.441Z,3.30
2023-05-05T10:54:30.018Z,1.90
2023-05-05T10:56:59.885Z,2.10
2023-05-05T10:59:39.355Z,2.10
2023-05-05T11:02:17.939Z,2.35
2023-05-05T11:04:44.782Z,2.53
2023-05-05T11:07:14.784Z,2.30
2023-05-05T11:09:55.185Z,2.00
2023-05-05T11:12:21.803Z,2.38
2023-05-05T11:15:12.527Z,3.40
2023-05-05T11:17:48.522Z,2.10
2023-05-05T11:20:19.964Z,2.17
2023-05-05T11:23:05.158Z,1.80
2023-05-05T11:25:52.333Z,1.80
2023-05-05T11:28:21.429Z,3.05
2023-05-05T11:30:57.813Z,3.30
2023-05-05T11:33:31.066Z,2.00
2023-05-05T11:35:58.423Z,4.03
2023-05-05T11:38:43.997Z,2.67
2023-05-05T11:41:14.169Z,2.53
2023-05-05T11:43:40.783Z,2.17
2023-05-05T11:46:14.373Z,2.15
2023-05-05T11:48:50.967Z,3.05
2023-05-05T11:51:18.778Z,1.77
2023-05-05T11:53:53.275Z,2.10
2023-05-05T11:56:26.903Z,2.38
2023-05-05T11:59:10.712Z,1.90
2023-05-05T12:01:41.060Z,2.72
2023-05-05T12:04:12.645Z,2.67
2023-05-05T12:09:07.111Z,2.00
2023-05-05T12:11:33.739Z,4.25
2023-05-05T12:14:12.578Z,2.25
2023-05-05T12:16:39.297Z,1.70
2023-05-05T12:19:06.468Z,2.10
2023-05-05T12:21:34.440Z,2.55
2023-05-05T12:24:01.955Z,3.03
2023-05-05T12:26:29.571Z,3.15
2023-05-05T12:28:56.774Z,2.00
2023-05-05T12:31:23.375Z,1.92
2023-05-05T12:33:50.652Z,2.05
2023-05-05T12:36:17.389Z,2.03
2023-05-05T12:38:51.575Z,2.45
2023-05-05T12:41:19.345Z,7.22
2023-05-05T12:43:45.947Z,6.05
2023-05-05T12:46:12.762Z,1.98
2023-05-05T12:48:49.262Z,3.08
2023-05-05T12:51:21.346Z,2.22
2023-05-05T12:53:48.288Z,2.70
2023-05-05T12:56:35.950Z,2.63
2023-05-05T12:59:06.479Z,6.00
2023-05-05T13:01:33.945Z,2.95
2023-05-05T13:04:09.539Z,2.42
2023-05-05T13:06:36.390Z,2.08
2023-05-05T13:09:04.266Z,2.05
2023-05-05T13:11:33.064Z,2.08
2023-05-05T13:14:01.956Z,2.33
2023-05-05T13:16:28.667Z,2.67
2023-05-05T13:18:55.230Z,2.13
2023-05-05T13:21:28.098Z,2.20
2023-05-05T13:24:05.100Z,1.88
2023-05-05T13:26:39.422Z,2.50
2023-05-05T13:29:06.155Z,2.92
2023-05-05T13:31:32.973Z,2.55
2023-05-05T13:33:59.579Z,2.42
2023-05-05T13:36:26.164Z,2.28
2023-05-05T13:38:52.796Z,2.60
2023-05-05T13:41:19.453Z,2.10
2023-05-05T13:43:53.022Z,5.30
2023-05-05T13:46:20.432Z,2.20
2023-05-05T13:48:47.114Z,2.30
2023-05-05T13:51:13.728Z,2.47
2023-05-05T13:53:40.346Z,11.98
2023-05-05T13:56:07.032Z,2.55
2023-05-05T13:58:34.507Z,2.45
2023-05-05T14:01:01.955Z,2.30
2023-05-05T14:03:28.804Z,2.33
2023-05-05T14:05:55.374Z,1.98
2023-05-05T14:08:22.518Z,2.50
2023-05-05T14:10:51.538Z,2.38
2023-05-05T14:13:19.124Z,4.30
2023-05-05T14:15:45.840Z,4.05
2023-05-05T14:18:14.968Z,2.75
2023-05-05T14:20:41.583Z,3.35
2023-05-05T14:23:08.222Z,2.33
2023-05-05T14:25:42.497Z,3.55
2023-05-05T14:28:12.299Z,4.55
2023-05-05T14:30:40.034Z,3.67
2023-05-05T14:33:06.715Z,2.80
2023-05-05T14:35:36.900Z,2.42
2023-05-05T14:38:08.118Z,2.58
2023-05-05T14:40:34.812Z,4.20
2023-05-05T14:43:01.444Z,2.50
2023-05-05T14:45:28.120Z,3.30
2023-05-05T14:47:55.041Z,2.10
2023-05-05T14:50:32.446Z,2.22
2023-05-05T14:53:00.420Z,3.78
2023-05-05T14:55:32.619Z,4.53
2023-05-05T14:57:59.807Z,2.28
2023-05-05T15:00:28.829Z,2.30
2023-05-05T15:02:55.429Z,5.00
2023-05-05T15:05:22.108Z,2.60
2023-05-05T15:07:48.659Z,2.58
2023-05-05T15:10:15.483Z,2.40
2023-05-05T15:12:44.455Z,4.78
2023-05-05T15:15:14.246Z,2.45
2023-05-05T15:17:45.196Z,2.38
2023-05-05T15:20:11.992Z,3.88
2023-05-05T15:22:38.714Z,2.80
2023-05-05T15:25:05.522Z,5.22
2023-05-05T15:27:32.103Z,2.67
2023-05-05T15:29:59.027Z,3.03
2023-05-05T15:32:25.699Z,2.88
2023-05-05T15:34:54.896Z,2.55
2023-05-05T15:37:21.547Z,3.63
2023-05-05T15:39:48.111Z,3.72
2023-05-05T15:42:14.835Z,2.85
2023-05-05T15:44:41.449Z,2.65
2023-05-05T15:47:12.448Z,5.50
2023-05-05T15:49:39.085Z,4.32
2023-05-05T15:52:09.243Z,3.72
2023-05-05T15:54:35.992Z,7.30
2023-05-05T15:57:02.645Z,3.53
2023-05-05T15:59:29.382Z,4.90
2023-05-05T16:01:56.147Z,4.93
2023-05-05T16:04:22.785Z,3.35
2023-05-05T16:06:49.593Z,6.72
2023-05-05T16:09:16.172Z,5.15
2023-05-05T16:11:45.344Z,3.15
2023-05-05T16:14:12.336Z,3.55
2023-05-05T16:16:39.691Z,3.22
2023-05-05T16:19:06.290Z,8.55
2023-05-05T16:21:32.895Z,12.13
2023-05-05T16:23:59.491Z,4.57
2023-05-05T16:26:26.125Z,7.97
2023-05-05T16:28:52.715Z,4.38
2023-05-05T16:31:23.481Z,6.82
2023-05-05T16:33:52.788Z,3.23
2023-05-05T16:36:19.373Z,3.58
2023-05-05T16:38:45.963Z,4.45
2023-05-05T16:41:12.627Z,3.08
2023-05-05T16:43:39.283Z,3.60
2023-05-05T16:46:06.424Z,4.20
2023-05-05T16:48:33.063Z,6.07
2023-05-05T16:50:59.726Z,5.35
2023-05-05T16:53:26.314Z,5.25
2023-05-05T16:55:54.052Z,3.40
2023-05-05T16:58:21.218Z,4.30
2023-05-05T17:00:47.891Z,3.95
2023-05-05T17:03:14.619Z,3.83
2023-05-05T17:05:41.311Z,3.45
2023-05-05T17:08:07.950Z,3.05
2023-05-05T17:10:34.730Z,3.97
2023-05-05T17:13:01.347Z,3.08
2023-05-05T17:15:28.002Z,3.45
2023-05-05T17:17:56.094Z,7.20
2023-05-05T17:20:22.702Z,3.80
2023-05-05T17:22:56.752Z,5.55
2023-05-05T17:25:25.277Z,3.40
2023-05-05T17:27:52.301Z,3.30
2023-05-05T17:30:19.172Z,8.27
2023-05-05T17:32:45.827Z,4.47
2023-05-05T17:35:23.754Z,8.30
2023-05-05T17:37:52.082Z,5.95
2023-05-05T17:40:21.163Z,5.57
2023-05-05T17:42:47.747Z,5.13
2023-05-05T17:45:14.418Z,4.43
2023-05-05T17:47:41.053Z,4.38
2023-05-05T17:50:07.846Z,9.43
2023-05-05T17:52:34.414Z,6.47
2023-05-05T17:55:01.621Z,4.65
2023-05-05T17:57:39.182Z,4.78
2023-05-05T18:00:07.257Z,6.47
2023-05-05T18:02:35.261Z,4.78
2023-05-05T18:05:04.105Z,6.28
2023-05-05T18:07:44.276Z,7.40
2023-05-05T18:10:13.335Z,7.10
2023-05-05T18:12:40.695Z,4.72
2023-05-05T18:15:07.763Z,7.07
2023-05-05T18:17:34.648Z,5.32
2023-05-05T18:20:01.468Z,6.35
2023-05-05T18:22:32.884Z,6.35
2023-05-05T18:25:02.831Z,4.35
2023-05-05T18:27:37.694Z,6.10
2023-05-05T18:30:04.655Z,6.45
2023-05-05T18:32:31.581Z,7.78
2023-05-05T18:35:01.348Z,7.45
2023-05-05T18:37:28.164Z,10.35
2023-05-05T18:39:56.666Z,7.47
2023-05-05T18:42:23.307Z,7.75
2023-05-05T18:44:50.464Z,6.10
2023-05-05T18:47:18.301Z,7.72
2023-05-05T18:49:44.909Z,5.47
2023-05-05T18:52:18.904Z,7.82
2023-05-05T18:54:46.485Z,6.15
2023-05-05T18:57:13.362Z,7.97
2023-05-05T18:59:40.227Z,6.68
2023-05-05T19:02:06.840Z,7.03
2023-05-05T19:04:36.573Z,6.40
2023-05-05T19:07:03.552Z,6.72
2023-05-05T19:09:30.283Z,6.97
2023-05-05T19:12:02.435Z,6.07
2023-05-05T19:14:29.141Z,7.32
2023-05-05T19:16:56.352Z,7.82
2023-05-05T19:19:25.146Z,12.60
2023-05-05T19:21:54.990Z,8.13
2023-05-05T19:24:22.906Z,9.48
2023-05-05T19:26:49.574Z,6.03
2023-05-05T19:29:17.832Z,12.05
2023-05-05T19:31:44.571Z,8.68
2023-05-05T19:34:15.102Z,10.32
2023-05-05T19:36:41.750Z,8.23
2023-05-05T19:39:08.389Z,9.07
2023-05-05T19:41:37.509Z,7.72
2023-05-05T19:44:05.085Z,10.52
2023-05-05T19:46:35.957Z,6.22
2023-05-05T19:49:07.929Z,12.10
2023-05-05T19:51:37.292Z,11.48
2023-05-05T19:54:03.962Z,6.15
2023-05-05T19:56:36.772Z,9.27
2023-05-05T19:59:10.470Z,11.55
2023-05-05T20:01:37.178Z,8.07
2023-05-05T20:04:09.726Z,5.93
2023-05-05T20:06:42.234Z,8.63
2023-05-05T20:09:12.858Z,8.05
2023-05-05T20:11:41.273Z,8.48
2023-05-05T20:14:10.920Z,8.00
2023-05-05T20:16:39.075Z,13.73
2023-05-05T20:19:05.768Z,10.43
2023-05-05T20:21:33.935Z,10.20
2023-05-05T20:24:00.664Z,11.48
2023-05-05T20:26:27.376Z,9.68
2023-05-05T20:28:54.216Z,9.30
2023-05-05T20:31:24.054Z,9.38
2023-05-05T20:33:51.699Z,9.02
2023-05-05T20:36:18.477Z,13.00
2023-05-05T20:38:45.127Z,10.02
2023-05-05T20:41:11.769Z,10.40
2023-05-05T20:43:41.422Z,12.38
2023-05-05T20:46:10.979Z,10.63
2023-05-05T20:48:42.445Z,9.50
2023-05-05T20:51:09.710Z,10.27
2023-05-05T20:53:38.833Z,12.50
2023-05-05T20:56:08.492Z,10.30
2023-05-05T20:58:39.928Z,9.90
2023-05-05T21:01:06.643Z,8.27
2023-05-05T21:03:38.502Z,16.77
2023-05-05T21:06:05.286Z,10.73
2023-05-05T21:08:31.911Z,9.77
2023-05-05T21:10:58.486Z,11.38
2023-05-05T21:13:25.179Z,9.57
2023-05-05T21:15:51.796Z,12.18
2023-05-05T21:18:21.516Z,10.85
2023-05-05T21:20:50.467Z,8.75
2023-05-05T21:23:18.037Z,13.43
2023-05-05T21:25:44.757Z,10.20
2023-05-05T21:28:11.409Z,12.95
2023-05-05T21:30:45.231Z,7.80
2023-05-05T21:33:15.756Z,11.20
2023-05-05T21:35:42.426Z,11.30
2023-05-05T21:38:09.982Z,11.25
2023-05-05T21:40:43.401Z,8.45
2023-05-05T21:43:15.761Z,13.05
2023-05-05T21:45:42.463Z,11.98
2023-05-05T21:48:09.204Z,10.23
2023-05-05T21:50:37.873Z,9.32
2023-05-05T21:53:14.873Z,8.50
2023-05-05T21:55:41.485Z,10.57
2023-05-05T21:58:08.078Z,10.38
2023-05-05T22:00:37.007Z,12.60
2023-05-05T22:03:03.717Z,9.43
2023-05-05T22:05:30.582Z,15.60
2023-05-05T22:07:57.144Z,14.57
2023-05-05T22:10:28.352Z,13.82
2023-05-05T22:12:59.339Z,10.20
2023-05-05T22:15:30.003Z,11.90
2023-05-05T22:17:59.553Z,11.85
2023-05-05T22:20:26.339Z,9.25
2023-05-05T22:22:53.991Z,12.88
2023-05-05T22:25:23.772Z,14.05
2023-05-05T22:27:50.346Z,13.57
2023-05-05T22:30:16.971Z,11.90
2023-05-05T22:32:46.105Z,13.45
2023-05-05T22:35:12.750Z,9.90
2023-05-05T22:37:39.330Z,10.60
2023-05-05T22:40:06.361Z,11.00
2023-05-05T22:42:33.230Z,11.40
2023-05-05T22:44:59.824Z,13.45
2023-05-05T22:47:26.517Z,11.88
2023-05-05T22:50:01.735Z,13.40
2023-05-05T22:52:28.308Z,15.07
2023-05-05T22:54:55.381Z,10.65
2023-05-05T22:57:24.752Z,14.65
2023-05-05T22:59:51.472Z,12.48
2023-05-05T23:02:18.105Z,11.80
2023-05-05T23:04:47.797Z,11.93
2023-05-05T23:07:15.137Z,10.60
2023-05-05T23:09:41.697Z,12.10
2023-05-05T23:12:08.241Z,10.10
2023-05-05T23:14:35.167Z,9.43
2023-05-05T23:17:09.086Z,11.40
2023-05-05T23:19:35.947Z,12.73
2023-05-05T23:22:05.784Z,12.20
2023-05-05T23:24:32.386Z,11.95
2023-05-05T23:26:59.505Z,12.85
2023-05-05T23:29:26.255Z,11.00
2023-05-05T23:31:52.837Z,11.15
2023-05-05T23:34:19.572Z,12.18
2023-05-05T23:36:50.297Z,14.57
2023-05-05T23:39:16.894Z,11.90
2023-05-05T23:41:43.492Z,12.07
2023-05-05T23:44:10.088Z,11.80
2023-05-05T23:46:36.824Z,11.27
2023-05-05T23:49:06.776Z,13.50
2023-05-05T23:51:42.874Z,12.73
2023-05-05T23:54:09.863Z,14.85
2023-05-05T23:56:37.521Z,15.38
2023-05-05T23:59:04.078Z,12.95
